CYBB/YBB METAR and TAF weather

Enter ICAO airport designator
Station Type Date Time Source
CYBB METAR 2018/01/22 00:00 UTC NOAA

CYBB 220000Z 25018KT 10SM BR DRSN BKN009 M32/M36 A3026 RMK FG3ST2 -31.1/-33.1/0.0/LAST STFD OBS/NXT 221300Z SLP251


Station Type Date Time Source
CYBB Decoded METAR 2018/01/22 00:00 UTC NOAA

Pelly Bay Airport, Canada (CYBB) 68-32N 089-49W
Jan 21, 2018 - 07:00 PM EST / 2018.01.22 0000 UTC
Wind: from the WSW (250 degrees) at 21 MPH (18 KT):0
Visibility: 10 mile(s):0
Sky conditions: mostly cloudy
Weather: mist; low drifting snow
Temperature: -25 F (-32 C)
Windchill: -56 F (-49 C):2
Dew Point: -32 F (-36 C)
Relative Humidity: 67%
Pressure (altimeter): 30.26 in. Hg (1024 hPa)
ob: CYBB 220000Z 25018KT 10SM BR DRSN BKN009 M32/M36 A3026 RMK FG3ST2 -31.1/-33.1/0.0/LAST STFD OBS/NXT 221300Z SLP251
cycle: 0

Station Type Date Time Source
CYBB TAF 2018/01/21 23:39 UTC NOAA

TAF
AMD TAF
AMD CYBB 212335Z 2123/2124 23014KT P6SM FEW009
TEMPO 2123/2124 21/2SM BR BKN009
RMK NXT FCST WILL BE ISSUED AT 221445Z


Example: see airport list